createdAt,value
2023-02-28T00:00:00.190Z,101090.38
2023-02-28T00:04:54.110Z,101098.16
2023-02-28T00:09:45.873Z,101096.88
2023-02-28T00:14:37.890Z,101108.88
2023-02-28T00:19:29.538Z,101102.34
2023-02-28T00:24:21.248Z,101104.34
2023-02-28T00:29:12.968Z,101110.03
2023-02-28T00:34:07.489Z,101111.31
2023-02-28T00:38:59.177Z,101107.78
2023-02-28T00:43:50.947Z,101104.94
2023-02-28T00:48:42.703Z,101093.50
2023-02-28T00:53:37.020Z,101101.56
2023-02-28T00:58:29.026Z,101097.84
2023-02-28T01:08:13.509Z,101106.78
2023-02-28T01:13:05.193Z,101116.69
2023-02-28T01:17:59.198Z,101112.72
2023-02-28T01:22:50.969Z,101112.41
2023-02-28T01:27:42.751Z,101115.34
2023-02-28T01:32:34.428Z,101114.66
2023-02-28T01:37:26.132Z,101121.56
2023-02-28T01:42:17.786Z,101128.06
2023-02-28T01:47:09.807Z,101113.63
2023-02-28T01:52:01.735Z,101120.44
2023-02-28T01:56:58.835Z,101121.91
2023-02-28T02:01:51.155Z,101108.75
2023-02-28T02:06:46.950Z,101100.81
2023-02-28T02:11:41.812Z,101116.50
2023-02-28T02:17:05.156Z,101119.50
2023-02-28T02:22:27.869Z,101110.84
2023-02-28T02:27:51.310Z,101112.75
2023-02-28T02:32:43.135Z,101113.34
2023-02-28T02:37:43.380Z,101106.72
2023-02-28T02:42:50.244Z,101103.03
2023-02-28T02:47:46.034Z,101104.31
2023-02-28T02:52:50.275Z,101099.09
2023-02-28T02:57:49.284Z,101108.28
2023-02-28T03:02:42.685Z,101095.41
2023-02-28T03:07:34.370Z,101104.22
2023-02-28T03:12:42.904Z,101090.38
2023-02-28T03:17:37.148Z,101103.66
2023-02-28T03:22:28.834Z,101105.38
2023-02-28T03:27:46.396Z,101103.66
2023-02-28T03:32:46.317Z,101106.94
2023-02-28T03:37:42.249Z,101097.44
2023-02-28T03:42:39.189Z,101106.81
2023-02-28T03:47:44.401Z,101101.88
2023-02-28T03:52:42.162Z,101108.22
2023-02-28T03:57:33.887Z,101104.25
2023-02-28T04:02:25.776Z,101103.56
2023-02-28T04:07:18.091Z,101108.25
2023-02-28T04:12:10.123Z,101107.94
2023-02-28T04:17:01.824Z,101106.84
2023-02-28T04:21:55.211Z,101103.44
2023-02-28T04:26:49.398Z,101107.13
2023-02-28T04:31:41.867Z,101105.56
2023-02-28T04:36:33.758Z,101103.44
2023-02-28T04:41:25.544Z,101114.63
2023-02-28T04:46:17.254Z,101114.19
2023-02-28T04:51:11.459Z,101123.50
2023-02-28T04:56:03.314Z,101108.53
2023-02-28T05:01:02.031Z,101114.47
2023-02-28T05:05:53.746Z,101125.63
2023-02-28T05:10:45.391Z,101112.50
2023-02-28T05:15:37.020Z,101117.72
2023-02-28T05:20:28.729Z,101111.38
2023-02-28T05:25:25.419Z,101111.38
2023-02-28T05:30:17.439Z,101116.59
2023-02-28T05:35:09.890Z,101114.19
2023-02-28T05:40:01.638Z,101124.34
2023-02-28T05:44:53.312Z,101132.28
2023-02-28T05:49:45.045Z,101137.63
2023-02-28T05:54:36.723Z,101135.97
2023-02-28T05:59:28.397Z,101142.31
2023-02-28T06:04:31.451Z,101139.78
2023-02-28T06:09:24.127Z,101147.69
2023-02-28T06:14:18.806Z,101142.47
2023-02-28T06:19:11.380Z,101150.94
2023-02-28T06:24:04.286Z,101146.72
2023-02-28T06:28:56.216Z,101145.41
2023-02-28T06:33:48.908Z,101144.59
2023-02-28T06:38:42.185Z,101153.06
2023-02-28T06:43:38.557Z,101149.66
2023-02-28T06:48:30.307Z,101159.84
2023-02-28T06:53:22.060Z,101168.47
2023-02-28T06:58:16.614Z,101173.13
2023-02-28T07:03:08.279Z,101166.34
2023-02-28T07:07:59.971Z,101168.19
2023-02-28T07:12:52.532Z,101185.44
2023-02-28T07:17:44.549Z,101177.53
2023-02-28T07:22:36.305Z,101177.25
2023-02-28T07:27:29.361Z,101179.94
2023-02-28T07:32:21.302Z,101181.47
2023-02-28T07:37:13.876Z,101191.78
2023-02-28T07:42:07.382Z,101194.63
2023-02-28T07:47:00.890Z,101184.88
2023-02-28T07:51:52.539Z,101195.50
2023-02-28T07:56:44.230Z,101198.59
2023-02-28T08:01:35.958Z,101204.66
2023-02-28T08:06:27.628Z,101202.69
2023-02-28T08:11:19.443Z,101207.78
2023-02-28T08:16:12.269Z,101196.75
2023-02-28T08:21:11.355Z,101203.66
2023-02-28T08:26:06.744Z,101205.50
2023-02-28T08:30:58.875Z,101199.16
2023-02-28T08:35:53.910Z,101199.72
2023-02-28T08:40:45.652Z,101202.25
2023-02-28T08:45:37.498Z,101198.28
2023-02-28T08:50:29.270Z,101198.28
2023-02-28T08:55:20.870Z,101199.81
2023-02-28T09:00:14.923Z,101207.47
2023-02-28T09:05:07.069Z,101200.66
2023-02-28T09:09:59.038Z,101199.25
2023-02-28T09:14:55.756Z,101212.25
2023-02-28T09:19:49.432Z,101206.75
2023-02-28T09:29:38.161Z,101217.06
2023-02-28T09:34:32.039Z,101215.91
2023-02-28T09:39:24.661Z,101211.50
2023-02-28T09:44:27.633Z,101212.28
2023-02-28T09:49:24.337Z,101210.03
2023-02-28T09:54:32.608Z,101211.84
2023-02-28T09:59:30.326Z,101216.78
2023-02-28T10:04:52.872Z,101215.09
2023-02-28T10:09:48.084Z,101214.91
2023-02-28T10:14:46.028Z,101218.69
2023-02-28T10:19:44.030Z,101211.03
2023-02-28T10:24:48.613Z,101212.31
2023-02-28T10:29:43.448Z,101208.38
2023-02-28T10:34:35.153Z,101216.28
2023-02-28T10:39:43.647Z,101209.16
2023-02-28T10:44:35.150Z,101213.72
2023-02-28T10:49:31.662Z,101208.50
2023-02-28T10:54:38.946Z,101218.06
2023-02-28T10:59:32.289Z,101219.22
2023-02-28T11:04:23.980Z,101210.44
2023-02-28T11:09:48.582Z,101219.63
2023-02-28T11:14:53.260Z,101221.34
2023-02-28T11:19:52.208Z,101213.41
2023-02-28T11:24:48.470Z,101204.88
2023-02-28T11:29:48.770Z,101203.09
2023-02-28T11:34:42.142Z,101185.69
2023-02-28T11:39:34.691Z,101182.19
2023-02-28T11:44:41.559Z,101183.94
2023-02-28T11:49:59.212Z,101178.09
2023-02-28T11:55:09.661Z,101177.34
2023-02-28T12:00:16.243Z,101177.56
2023-02-28T12:05:16.888Z,101170.75
2023-02-28T12:10:31.559Z,101168.34
2023-02-28T12:15:42.001Z,101160.03
2023-02-28T12:20:55.514Z,101160.28
2023-02-28T12:25:59.287Z,101149.63
2023-02-28T12:31:01.726Z,101151.34
2023-02-28T12:36:02.219Z,101151.00
2023-02-28T12:41:13.810Z,101137.19
2023-02-28T12:46:20.994Z,101130.97
2023-02-28T12:51:13.904Z,101132.19
2023-02-28T12:56:18.313Z,101124.06
2023-02-28T13:01:19.436Z,101102.09
2023-02-28T13:06:36.651Z,101105.50
2023-02-28T13:11:39.365Z,101103.78
2023-02-28T13:16:55.965Z,101097.34
2023-02-28T13:21:49.945Z,101092.66
2023-02-28T13:26:42.822Z,101097.22
2023-02-28T13:32:03.428Z,101093.31
2023-02-28T13:37:22.891Z,101087.25
2023-02-28T13:42:24.012Z,101079.16
2023-02-28T13:47:23.494Z,101077.94
2023-02-28T13:52:23.078Z,101072.03
2023-02-28T13:57:20.521Z,101075.91
2023-02-28T14:02:33.976Z,101069.88
2023-02-28T14:07:38.236Z,101072.94
2023-02-28T14:12:59.427Z,101061.63
2023-02-28T14:17:55.922Z,101066.69
2023-02-28T14:23:25.791Z,101050.28
2023-02-28T14:28:42.361Z,101051.47
2023-02-28T14:33:47.111Z,101046.25
2023-02-28T14:38:47.760Z,101040.47
2023-02-28T14:43:50.406Z,101040.81
2023-02-28T14:48:42.192Z,101038.09
2023-02-28T14:53:38.370Z,101051.78
2023-02-28T14:58:34.611Z,101045.38
2023-02-28T15:03:40.505Z,101038.78
2023-02-28T15:08:37.201Z,101034.38
2023-02-28T15:13:48.809Z,101027.78
2023-02-28T15:18:54.037Z,101021.69
2023-02-28T15:23:51.660Z,101030.09
2023-02-28T15:28:44.318Z,101019.13
2023-02-28T15:33:35.999Z,101033.78
2023-02-28T15:38:28.689Z,101019.81
2023-02-28T15:43:30.332Z,101019.63
2023-02-28T15:48:26.202Z,101021.13
2023-02-28T15:53:23.094Z,101024.47
2023-02-28T15:58:23.519Z,101027.66
2023-02-28T16:03:27.034Z,101029.00
2023-02-28T16:08:19.003Z,101031.16
2023-02-28T16:13:15.118Z,101032.78
2023-02-28T16:18:11.750Z,101037.84
2023-02-28T16:23:03.961Z,101041.59
2023-02-28T16:28:01.358Z,101030.41
2023-02-28T16:32:55.483Z,101034.13
2023-02-28T16:37:47.289Z,101038.97
2023-02-28T16:42:39.417Z,101031.91
2023-02-28T16:47:32.942Z,101024.66
2023-02-28T16:52:25.179Z,101021.97
2023-02-28T16:57:22.383Z,101015.19
2023-02-28T17:02:18.085Z,101020.44
2023-02-28T17:07:13.693Z,101017.06
2023-02-28T17:12:05.657Z,101016.75
2023-02-28T17:16:59.957Z,101015.84
2023-02-28T17:21:51.595Z,101014.31
2023-02-28T17:26:43.909Z,101014.50
2023-02-28T17:31:40.447Z,101010.75
2023-02-28T17:36:34.765Z,101015.66
2023-02-28T17:41:27.519Z,101022.19
2023-02-28T17:46:22.793Z,101026.91
2023-02-28T17:51:15.886Z,101041.53
2023-02-28T17:56:33.076Z,101038.16
2023-02-28T18:01:29.163Z,101044.72
2023-02-28T18:06:25.330Z,101053.66
2023-02-28T18:11:19.874Z,101052.13
2023-02-28T18:16:11.592Z,101051.97
2023-02-28T18:21:06.526Z,101058.50
2023-02-28T18:25:59.182Z,101057.31
2023-02-28T18:30:51.119Z,101064.84
2023-02-28T18:35:44.795Z,101072.41
2023-02-28T18:40:37.374Z,101074.25
2023-02-28T18:45:29.222Z,101078.63
2023-02-28T18:50:21.346Z,101085.03
2023-02-28T18:55:18.667Z,101072.72
2023-02-28T19:00:10.951Z,101071.00
2023-02-28T19:05:02.659Z,101070.47
2023-02-28T19:09:54.441Z,101076.19
2023-02-28T19:14:46.935Z,101067.41
2023-02-28T19:19:38.538Z,101061.16
2023-02-28T19:24:30.416Z,101068.41
2023-02-28T19:29:22.308Z,101070.28
2023-02-28T19:34:14.238Z,101069.25
2023-02-28T19:39:06.459Z,101064.88
2023-02-28T19:43:58.209Z,101075.09
2023-02-28T19:48:53.957Z,101083.66
2023-02-28T19:53:45.816Z,101079.97
2023-02-28T19:58:38.483Z,101074.50
2023-02-28T20:03:30.223Z,101071.41
2023-02-28T20:08:22.057Z,101085.59
2023-02-28T20:13:16.667Z,101074.13
2023-02-28T20:18:08.512Z,101077.38
2023-02-28T20:23:00.400Z,101065.50
2023-02-28T20:27:52.190Z,101080.94
2023-02-28T20:32:43.991Z,101075.72
2023-02-28T20:37:35.679Z,101087.31
2023-02-28T20:42:27.325Z,101083.25
2023-02-28T20:47:19.505Z,101071.63
2023-02-28T20:52:11.502Z,101078.88
2023-02-28T20:57:03.319Z,101070.78
2023-02-28T21:01:56.321Z,101077.84
2023-02-28T21:06:48.096Z,101078.41
2023-02-28T21:11:42.114Z,101087.06
2023-02-28T21:16:36.563Z,101083.22
2023-02-28T21:21:30.015Z,101091.28
2023-02-28T21:26:24.027Z,101089.75
2023-02-28T21:31:17.165Z,101093.38
2023-02-28T21:36:10.631Z,101098.25
2023-02-28T21:41:10.638Z,101095.72
2023-02-28T21:46:08.286Z,101108.50
2023-02-28T21:51:04.965Z,101117.88
2023-02-28T21:56:05.165Z,101115.78
2023-02-28T22:01:08.773Z,101104.63
2023-02-28T22:06:00.499Z,101108.00
2023-02-28T22:10:52.252Z,101109.72
2023-02-28T22:15:43.953Z,101112.56
2023-02-28T22:20:35.591Z,101110.00
2023-02-28T22:25:29.080Z,101100.69
2023-02-28T22:30:21.143Z,101123.06
2023-02-28T22:35:13.273Z,101116.16
2023-02-28T22:40:07.408Z,101114.44
2023-02-28T22:44:59.127Z,101105.84
2023-02-28T22:49:50.810Z,101115.50
2023-02-28T22:54:43.004Z,101117.50
2023-02-28T22:59:34.782Z,101125.44
2023-02-28T23:04:27.075Z,101131.50
2023-02-28T23:09:21.564Z,101132.47
2023-02-28T23:14:15.690Z,101126.13
2023-02-28T23:19:11.662Z,101133.06
2023-02-28T23:24:06.073Z,101135.75
2023-02-28T23:28:57.949Z,101138.13
2023-02-28T23:33:49.659Z,101130.75
2023-02-28T23:38:43.863Z,101136.81
2023-02-28T23:43:36.504Z,101127.91
2023-02-28T23:48:28.803Z,101127.91
2023-02-28T23:53:20.415Z,101118.56
2023-02-28T23:58:12.439Z,101133.34
